Terminal Aerodrome Forecast
Issued by NWS Green Bay, WI

Home | Current Version | Previous Version | Graphics & Text | Print | Product List | Glossary On
Versions: 1 2 3 4 5 6 7 8 9 10 11 12 13 14 15
000
FTUS43 KGRB 242005 AAA
TAFGRB
TAF AMD
KGRB 242005Z 2420/2518 23010G18KT P6SM SCT016 BKN028
     FM242100 25010G20KT P6SM SCT020 BKN035
     FM250200 28007KT P6SM FEW250=

USA.gov is the U.S. government's official web portal to all federal, state and local government web resources and services.